Time;durP1;ratioP1;P1;durP2;ratioP2;P2;SDS_P1;SDS_P2;PMS_P1;PMS_P2;Temp;Humidity;BMP_temperature;BMP_pressure;BME280_temperature;BME280_humidity;BME280_pressure;Samples;Min_cycle;Max_cycle;Signal;HPM_P1;HPM_P2
2022/05/18 00:00:56;;;;;;;51.17;21.02;;;;;;;;;;351074;150;857280;-57
2022/05/18 00:02:00;;;;;;;53.42;20.58;;;;;;;;;;350310;151;865014;-57
2022/05/18 00:03:06;;;;;;;53.04;21.29;;;;;;;;;;346188;153;868314;-54
2022/05/18 00:04:08;;;;;;;39.86;17.73;;;;;;;;;;344309;153;865014;-54
2022/05/18 00:05:10;;;;;;;33.59;14.12;;;;;;;;;;345560;153;857320;-54
2022/05/18 00:06:12;;;;;;;40.34;15.75;;;;;;;;;;346224;153;862432;-55
2022/05/18 00:07:13;;;;;;;39.69;16.01;;;;;;;;;;345154;153;857306;-54
2022/05/18 00:08:15;;;;;;;40.62;15.45;;;;;;;;;;347103;153;865925;-54
2022/05/18 00:09:16;;;;;;;47.31;17.12;;;;;;;;;;338080;156;857484;-54
2022/05/18 00:10:19;;;;;;;42.05;15.64;;;;;;;;;;339437;155;857495;-55
2022/05/18 00:11:20;;;;;;;42.21;15.83;;;;;;;;;;340006;155;859462;-55
2022/05/18 00:12:22;;;;;;;39.04;15.16;;;;;;;;;;345954;153;856696;-55
2022/05/18 00:13:23;;;;;;;39.27;14.73;;;;;;;;;;344956;152;865012;-53
2022/05/18 00:14:25;;;;;;;38.97;14.94;;;;;;;;;;338480;156;866790;-53
2022/05/18 00:15:27;;;;;;;36.42;14.29;;;;;;;;;;338043;155;857435;-53
2022/05/18 00:16:29;;;;;;;40.45;14.42;;;;;;;;;;346725;152;858285;-54
2022/05/18 00:17:30;;;;;;;33.30;13.89;;;;;;;;;;345024;153;859004;-54
2022/05/18 00:18:33;;;;;;;38.10;12.87;;;;;;;;;;345130;153;859027;-54
2022/05/18 00:19:35;;;;;;;33.78;12.19;;;;;;;;;;345687;153;858728;-54
2022/05/18 00:20:37;;;;;;;25.70;9.45;;;;;;;;;;344786;153;859099;-54
2022/05/18 00:21:39;;;;;;;28.35;11.46;;;;;;;;;;333303;157;859157;-55
2022/05/18 00:22:45;;;;;;;25.21;10.64;;;;;;;;;;326631;162;857915;-54
2022/05/18 00:23:46;;;;;;;26.94;10.04;;;;;;;;;;328006;161;856925;-54
2022/05/18 00:24:48;;;;;;;21.51;9.24;;;;;;;;;;329761;161;858317;-54
2022/05/18 00:25:49;;;;;;;20.33;9.33;;;;;;;;;;345101;153;857317;-53
2022/05/18 00:26:51;;;;;;;20.56;9.26;;;;;;;;;;345148;153;857502;-55
2022/05/18 00:27:53;;;;;;;18.15;8.74;;;;;;;;;;345456;153;866612;-53
2022/05/18 00:28:54;;;;;;;18.95;8.91;;;;;;;;;;343788;153;865291;-54
2022/05/18 00:29:56;;;;;;;18.25;7.59;;;;;;;;;;345108;153;864523;-53
2022/05/18 00:30:58;;;;;;;21.69;7.92;;;;;;;;;;344944;153;857754;-54
2022/05/18 00:31:59;;;;;;;21.56;6.60;;;;;;;;;;344916;153;865093;-53
2022/05/18 00:33:03;;;;;;;15.89;6.29;;;;;;;;;;344731;153;857439;-54
2022/05/18 00:34:04;;;;;;;13.38;5.82;;;;;;;;;;345191;153;858863;-54
2022/05/18 00:35:07;;;;;;;13.57;5.94;;;;;;;;;;345300;153;857383;-54
2022/05/18 00:36:09;;;;;;;12.13;4.91;;;;;;;;;;344320;153;859051;-54
2022/05/18 00:37:10;;;;;;;16.11;5.52;;;;;;;;;;345059;153;857988;-54
2022/05/18 00:38:12;;;;;;;10.25;4.56;;;;;;;;;;347403;153;862261;-54
2022/05/18 00:39:13;;;;;;;8.84;4.20;;;;;;;;;;344810;153;858450;-53
2022/05/18 00:40:17;;;;;;;6.99;3.75;;;;;;;;;;344590;153;860589;-53
2022/05/18 00:41:19;;;;;;;12.54;4.56;;;;;;;;;;347331;153;857732;-55
2022/05/18 00:42:22;;;;;;;12.08;4.51;;;;;;;;;;345791;153;857317;-53
2022/05/18 00:43:31;;;;;;;11.79;4.91;;;;;;;;;;346893;153;857416;-53
2022/05/18 00:44:33;;;;;;;14.42;4.01;;;;;;;;;;343493;154;858673;-55
2022/05/18 00:45:35;;;;;;;10.16;4.11;;;;;;;;;;345870;154;858905;-54
2022/05/18 00:46:36;;;;;;;7.94;3.38;;;;;;;;;;343028;156;866300;-55
2022/05/18 00:47:38;;;;;;;11.90;3.65;;;;;;;;;;343301;155;859207;-55
2022/05/18 00:48:40;;;;;;;8.19;3.29;;;;;;;;;;345325;154;858300;-55
2022/05/18 00:49:44;;;;;;;11.12;3.65;;;;;;;;;;343445;155;865131;-54
2022/05/18 00:50:46;;;;;;;10.78;3.56;;;;;;;;;;344689;155;859412;-55
2022/05/18 00:51:48;;;;;;;8.14;3.36;;;;;;;;;;343798;154;864640;-53
2022/05/18 00:52:52;;;;;;;5.98;2.79;;;;;;;;;;344845;154;857308;-54
2022/05/18 00:53:54;;;;;;;9.14;3.34;;;;;;;;;;342064;155;856295;-53
2022/05/18 00:54:56;;;;;;;8.58;3.83;;;;;;;;;;344018;154;856388;-53
2022/05/18 00:55:59;;;;;;;8.69;3.51;;;;;;;;;;344819;154;859187;-54
2022/05/18 00:57:03;;;;;;;17.39;4.44;;;;;;;;;;343057;154;858555;-53
2022/05/18 00:58:07;;;;;;;14.29;4.83;;;;;;;;;;342966;156;859813;-54
2022/05/18 00:59:09;;;;;;;11.88;4.27;;;;;;;;;;343279;154;859108;-54
2022/05/18 01:00:13;;;;;;;13.19;4.87;;;;;;;;;;343045;155;865104;-54
2022/05/18 01:01:14;;;;;;;12.25;5.09;;;;;;;;;;344758;154;857737;-55
2022/05/18 01:02:16;;;;;;;12.39;5.66;;;;;;;;;;346912;153;859083;-54
2022/05/18 01:03:37;;;;;;;12.49;4.99;;;;;;;;;;342161;155;866137;-54
2022/05/18 01:04:39;;;;;;;13.31;4.94;;;;;;;;;;343337;154;857023;-53
2022/05/18 01:05:41;;;;;;;17.22;4.95;;;;;;;;;;343124;156;865136;-56
2022/05/18 01:06:44;;;;;;;13.89;5.41;;;;;;;;;;341160;154;859087;-54
2022/05/18 01:07:47;;;;;;;15.13;4.92;;;;;;;;;;344849;154;859289;-54
2022/05/18 01:08:50;;;;;;;12.59;4.75;;;;;;;;;;344656;153;857368;-56
2022/05/18 01:09:52;;;;;;;11.63;4.72;;;;;;;;;;344625;153;856673;-54
2022/05/18 01:10:53;;;;;;;12.01;5.08;;;;;;;;;;343480;155;856540;-54
2022/05/18 01:11:55;;;;;;;12.29;4.65;;;;;;;;;;344288;154;856415;-55
2022/05/18 01:12:57;;;;;;;9.57;4.26;;;;;;;;;;343855;154;859429;-54
2022/05/18 01:13:59;;;;;;;9.60;4.15;;;;;;;;;;343360;155;864955;-53
2022/05/18 01:15:05;;;;;;;14.88;4.58;;;;;;;;;;343069;156;857229;-54
2022/05/18 01:16:08;;;;;;;12.18;4.59;;;;;;;;;;342293;155;865154;-53
2022/05/18 01:17:11;;;;;;;11.41;4.01;;;;;;;;;;340706;154;857386;-56
2022/05/18 01:18:13;;;;;;;10.61;4.44;;;;;;;;;;342772;155;859212;-57
2022/05/18 01:19:16;;;;;;;8.17;4.39;;;;;;;;;;343890;156;859622;-54
2022/05/18 01:20:20;;;;;;;12.70;4.99;;;;;;;;;;342602;156;859206;-55
2022/05/18 01:21:21;;;;;;;9.59;3.88;;;;;;;;;;341368;156;859286;-53
2022/05/18 01:22:25;;;;;;;8.19;4.26;;;;;;;;;;346458;153;856457;-54
2022/05/18 01:23:38;;;;;;;10.30;4.09;;;;;;;;;;343968;154;857906;-56
2022/05/18 01:24:42;;;;;;;6.88;3.33;;;;;;;;;;345456;154;861364;-55
2022/05/18 01:26:04;;;;;;;10.41;3.71;;;;;;;;;;340081;153;859758;-55
2022/05/18 01:27:06;;;;;;;9.02;3.99;;;;;;;;;;341718;154;865885;-54
2022/05/18 01:28:08;;;;;;;13.06;4.51;;;;;;;;;;343004;155;857755;-54
2022/05/18 01:29:09;;;;;;;10.61;4.85;;;;;;;;;;343950;154;857941;-53
2022/05/18 01:30:12;;;;;;;14.86;5.45;;;;;;;;;;345343;154;857552;-54
2022/05/18 01:31:13;;;;;;;13.49;4.54;;;;;;;;;;344171;152;860216;-54
2022/05/18 01:32:15;;;;;;;10.69;4.60;;;;;;;;;;343385;156;865080;-53
2022/05/18 01:33:17;;;;;;;15.01;5.77;;;;;;;;;;345508;153;857197;-55
2022/05/18 01:34:20;;;;;;;18.63;6.13;;;;;;;;;;343486;156;857419;-53
2022/05/18 01:35:23;;;;;;;21.03;7.77;;;;;;;;;;345140;154;858218;-54
2022/05/18 01:36:25;;;;;;;21.16;7.53;;;;;;;;;;344303;153;857452;-54
2022/05/18 01:37:26;;;;;;;16.60;6.99;;;;;;;;;;343239;156;858321;-55
2022/05/18 01:38:28;;;;;;;21.09;7.65;;;;;;;;;;338137;157;857144;-54
2022/05/18 01:39:38;;;;;;;18.37;8.21;;;;;;;;;;340991;156;857372;-54
2022/05/18 01:40:44;;;;;;;18.24;8.28;;;;;;;;;;343584;155;860530;-56
2022/05/18 01:41:51;;;;;;;23.21;9.84;;;;;;;;;;343771;154;856908;-54
2022/05/18 01:43:03;;;;;;;24.33;9.41;;;;;;;;;;343997;154;858227;-54
2022/05/18 01:44:05;;;;;;;28.60;9.84;;;;;;;;;;339127;156;861136;-56
2022/05/18 01:45:07;;;;;;;20.14;9.66;;;;;;;;;;339954;156;858249;-54
2022/05/18 01:46:11;;;;;;;26.85;9.72;;;;;;;;;;340476;157;857692;-54
2022/05/18 01:47:12;;;;;;;22.85;10.58;;;;;;;;;;339778;156;858649;-56
2022/05/18 01:48:15;;;;;;;23.43;10.09;;;;;;;;;;339945;155;859440;-54
2022/05/18 01:49:17;;;;;;;27.85;10.31;;;;;;;;;;340585;156;857479;-54
2022/05/18 01:50:20;;;;;;;29.40;9.92;;;;;;;;;;340272;154;857541;-55
2022/05/18 01:51:33;;;;;;;25.91;10.00;;;;;;;;;;340442;156;865779;-54
2022/05/18 01:52:35;;;;;;;26.48;10.00;;;;;;;;;;339996;156;857771;-55
2022/05/18 01:53:36;;;;;;;23.32;10.29;;;;;;;;;;340310;156;857735;-54
2022/05/18 01:54:38;;;;;;;23.39;10.10;;;;;;;;;;340660;157;857904;-53
2022/05/18 01:55:40;;;;;;;32.51;12.11;;;;;;;;;;339044;157;857466;-52
2022/05/18 01:56:43;;;;;;;24.11;10.69;;;;;;;;;;340987;157;857419;-54
2022/05/18 01:57:44;;;;;;;30.64;11.34;;;;;;;;;;340588;157;864011;-54
2022/05/18 01:58:46;;;;;;;25.01;11.01;;;;;;;;;;340239;156;857221;-53
2022/05/18 01:59:47;;;;;;;24.92;10.21;;;;;;;;;;340404;157;857587;-54
2022/05/18 02:00:49;;;;;;;25.48;10.29;;;;;;;;;;339629;157;865174;-53
2022/05/18 02:01:51;;;;;;;26.68;10.03;;;;;;;;;;339739;156;866579;-55
2022/05/18 02:02:52;;;;;;;25.64;9.55;;;;;;;;;;340988;156;866465;-54
2022/05/18 02:03:54;;;;;;;27.44;9.91;;;;;;;;;;340545;157;858674;-54
2022/05/18 02:04:55;;;;;;;22.95;8.63;;;;;;;;;;340082;156;866337;-55
2022/05/18 02:05:57;;;;;;;24.36;9.79;;;;;;;;;;340570;157;856824;-53
2022/05/18 02:07:00;;;;;;;20.93;8.81;;;;;;;;;;340473;155;857674;-53
2022/05/18 02:08:03;;;;;;;23.81;9.23;;;;;;;;;;334088;158;863551;-56
2022/05/18 02:09:04;;;;;;;24.79;10.43;;;;;;;;;;333257;158;857217;-56
2022/05/18 02:10:08;;;;;;;23.31;9.33;;;;;;;;;;340020;155;856358;-54
2022/05/18 02:11:11;;;;;;;22.59;9.66;;;;;;;;;;339079;157;865454;-52
2022/05/18 02:12:13;;;;;;;19.63;9.02;;;;;;;;;;340379;157;860509;-53
2022/05/18 02:13:15;;;;;;;27.34;9.45;;;;;;;;;;340405;157;864746;-55
2022/05/18 02:14:17;;;;;;;26.59;9.33;;;;;;;;;;340893;157;859573;-55
2022/05/18 02:15:18;;;;;;;23.17;9.23;;;;;;;;;;340360;154;857689;-57
2022/05/18 02:16:20;;;;;;;23.09;8.84;;;;;;;;;;341156;157;857261;-51
2022/05/18 02:17:23;;;;;;;22.06;8.52;;;;;;;;;;340272;157;864688;-55
2022/05/18 02:18:25;;;;;;;17.12;8.08;;;;;;;;;;340542;157;864922;-54
2022/05/18 02:19:26;;;;;;;21.16;8.99;;;;;;;;;;341114;155;858402;-56
2022/05/18 02:20:28;;;;;;;20.87;7.94;;;;;;;;;;339640;157;857195;-56
2022/05/18 02:21:30;;;;;;;21.23;7.75;;;;;;;;;;327625;161;864884;-54
2022/05/18 02:22:32;;;;;;;21.68;8.13;;;;;;;;;;331466;161;857815;-54
2022/05/18 02:23:35;;;;;;;23.91;7.68;;;;;;;;;;337603;157;865020;-56
2022/05/18 02:24:38;;;;;;;21.78;7.74;;;;;;;;;;340285;157;857261;-55
2022/05/18 02:25:39;;;;;;;19.87;8.51;;;;;;;;;;339017;154;857899;-56
2022/05/18 02:26:42;;;;;;;23.84;7.05;;;;;;;;;;337640;154;857289;-55
2022/05/18 02:27:44;;;;;;;15.29;6.97;;;;;;;;;;341207;157;858324;-55
2022/05/18 02:28:45;;;;;;;16.59;7.32;;;;;;;;;;340068;154;865628;-53
2022/05/18 02:29:47;;;;;;;19.99;7.65;;;;;;;;;;337287;157;865692;-56
2022/05/18 02:30:49;;;;;;;15.43;6.39;;;;;;;;;;340543;157;857271;-55
2022/05/18 02:31:51;;;;;;;18.11;7.14;;;;;;;;;;339507;157;857246;-55
2022/05/18 02:32:52;;;;;;;19.38;7.21;;;;;;;;;;331573;161;865616;-54
2022/05/18 02:33:54;;;;;;;15.52;6.84;;;;;;;;;;335040;159;866634;-56
2022/05/18 02:34:56;;;;;;;17.95;7.14;;;;;;;;;;333620;160;865122;-57
2022/05/18 02:35:57;;;;;;;20.94;7.31;;;;;;;;;;334282;161;857347;-54
2022/05/18 02:36:59;;;;;;;14.94;5.61;;;;;;;;;;333051;160;865352;-55
2022/05/18 02:38:01;;;;;;;17.20;7.34;;;;;;;;;;331256;161;864927;-56
2022/05/18 02:39:02;;;;;;;17.09;6.62;;;;;;;;;;330681;162;864966;-55
2022/05/18 02:40:05;;;;;;;21.26;7.40;;;;;;;;;;328646;162;864959;-52
2022/05/18 02:41:07;;;;;;;17.40;6.95;;;;;;;;;;329564;162;864971;-54
2022/05/18 02:42:08;;;;;;;17.60;6.41;;;;;;;;;;328022;161;858331;-55
2022/05/18 02:43:10;;;;;;;18.70;6.91;;;;;;;;;;328803;161;865448;-52
2022/05/18 02:44:11;;;;;;;17.76;7.15;;;;;;;;;;329849;162;857408;-54
2022/05/18 02:45:13;;;;;;;19.01;7.71;;;;;;;;;;331092;159;858986;-54
2022/05/18 02:46:18;;;;;;;20.91;7.74;;;;;;;;;;329586;159;859273;-53
2022/05/18 02:47:20;;;;;;;22.46;8.22;;;;;;;;;;335661;157;858170;-56
2022/05/18 02:48:22;;;;;;;20.49;7.99;;;;;;;;;;336412;157;857832;-54
2022/05/18 02:49:24;;;;;;;23.69;8.88;;;;;;;;;;330857;160;864151;-53
2022/05/18 02:50:26;;;;;;;23.77;9.66;;;;;;;;;;328225;160;857415;-54
2022/05/18 02:51:29;;;;;;;20.83;7.75;;;;;;;;;;318610;166;857961;-54
2022/05/18 02:52:31;;;;;;;29.16;9.77;;;;;;;;;;313234;163;858793;-56
2022/05/18 02:53:33;;;;;;;26.91;10.16;;;;;;;;;;330009;159;866732;-55
2022/05/18 02:56:07;;;;;;;26.67;11.44;;;;;;;;;;331037;160;857466;-54
2022/05/18 02:57:10;;;;;;;26.62;11.84;;;;;;;;;;336735;157;858924;-55
2022/05/18 02:58:12;;;;;;;31.35;11.33;;;;;;;;;;336876;157;858521;-54
2022/05/18 02:59:14;;;;;;;28.79;12.19;;;;;;;;;;334457;158;857814;-54
2022/05/18 03:00:17;;;;;;;29.86;11.99;;;;;;;;;;335164;159;859160;-57
2022/05/18 03:01:21;;;;;;;28.17;12.31;;;;;;;;;;333088;158;857901;-55
2022/05/18 03:02:22;;;;;;;32.06;13.14;;;;;;;;;;333749;158;859732;-55
2022/05/18 03:03:24;;;;;;;29.73;12.76;;;;;;;;;;334644;158;864858;-55
2022/05/18 03:04:26;;;;;;;30.87;12.86;;;;;;;;;;331735;158;859155;-55
2022/05/18 03:05:27;;;;;;;33.28;12.87;;;;;;;;;;335272;158;859712;-55
2022/05/18 03:06:29;;;;;;;32.09;13.83;;;;;;;;;;328973;160;857072;-54
2022/05/18 03:07:31;;;;;;;31.69;13.97;;;;;;;;;;322137;162;867163;-53
2022/05/18 03:08:33;;;;;;;37.29;13.21;;;;;;;;;;323196;162;857517;-55
2022/05/18 03:09:34;;;;;;;25.06;12.20;;;;;;;;;;328817;162;867338;-52
2022/05/18 03:10:36;;;;;;;31.64;13.19;;;;;;;;;;334462;160;866170;-55
2022/05/18 03:11:38;;;;;;;28.25;12.07;;;;;;;;;;332672;159;865009;-55
2022/05/18 03:12:40;;;;;;;34.90;12.95;;;;;;;;;;329183;162;858641;-55
2022/05/18 03:13:41;;;;;;;25.94;11.65;;;;;;;;;;334564;157;865019;-53
2022/05/18 03:14:43;;;;;;;26.31;11.36;;;;;;;;;;328863;160;857579;-54
2022/05/18 03:15:47;;;;;;;26.57;11.82;;;;;;;;;;336150;157;856343;-54
2022/05/18 03:16:48;;;;;;;29.83;10.96;;;;;;;;;;326390;162;856350;-55
2022/05/18 03:17:50;;;;;;;17.07;7.66;;;;;;;;;;325267;164;858696;-54
2022/05/18 03:18:52;;;;;;;26.93;11.86;;;;;;;;;;322666;162;862439;-53
2022/05/18 03:19:54;;;;;;;25.11;11.43;;;;;;;;;;321819;164;863794;-55
2022/05/18 03:23:39;;;;;;;28.95;11.57;;;;;;;;;;331076;160;859015;-53
2022/05/18 03:24:41;;;;;;;21.17;9.55;;;;;;;;;;335230;157;856308;-54
2022/05/18 03:25:42;;;;;;;20.06;9.56;;;;;;;;;;335654;157;856269;-55
2022/05/18 03:26:44;;;;;;;25.10;11.48;;;;;;;;;;336559;159;864075;-55
2022/05/18 03:27:45;;;;;;;23.34;9.98;;;;;;;;;;336076;157;857114;-54
2022/05/18 03:28:48;;;;;;;29.14;11.26;;;;;;;;;;336022;157;856628;-55
2022/05/18 03:29:49;;;;;;;21.63;9.28;;;;;;;;;;336367;157;863813;-55
2022/05/18 03:30:51;;;;;;;20.26;7.89;;;;;;;;;;336968;157;856104;-54
2022/05/18 03:31:52;;;;;;;20.50;8.99;;;;;;;;;;334600;157;864548;-54
2022/05/18 03:32:54;;;;;;;24.36;8.96;;;;;;;;;;337063;158;856610;-55
2022/05/18 03:33:55;;;;;;;24.16;9.24;;;;;;;;;;335801;157;856329;-56
2022/05/18 03:34:57;;;;;;;18.76;6.88;;;;;;;;;;336362;157;856217;-54
2022/05/18 03:35:58;;;;;;;25.35;9.24;;;;;;;;;;336767;158;856624;-54
2022/05/18 03:37:00;;;;;;;22.06;9.28;;;;;;;;;;335974;157;856136;-55
2022/05/18 03:38:05;;;;;;;13.91;5.63;;;;;;;;;;336345;157;863793;-55
2022/05/18 03:39:06;;;;;;;22.54;8.33;;;;;;;;;;335973;158;856853;-55
2022/05/18 03:40:08;;;;;;;21.33;7.09;;;;;;;;;;335668;158;856602;-55
2022/05/18 03:41:10;;;;;;;11.22;5.55;;;;;;;;;;336716;157;856244;-56
2022/05/18 03:42:12;;;;;;;24.38;8.69;;;;;;;;;;332269;159;856048;-55
2022/05/18 03:43:14;;;;;;;21.86;8.71;;;;;;;;;;331796;161;856824;-55
2022/05/18 03:44:15;;;;;;;24.91;8.71;;;;;;;;;;333118;161;856681;-56
2022/05/18 03:45:17;;;;;;;22.33;9.66;;;;;;;;;;332576;160;863532;-56
2022/05/18 03:46:19;;;;;;;17.59;7.41;;;;;;;;;;331464;162;856446;-55
2022/05/18 03:47:21;;;;;;;18.53;9.36;;;;;;;;;;333004;161;856693;-55
2022/05/18 03:48:22;;;;;;;19.97;8.04;;;;;;;;;;332092;161;856157;-55
2022/05/18 03:49:24;;;;;;;19.69;8.07;;;;;;;;;;331897;160;863864;-54
2022/05/18 03:50:28;;;;;;;15.42;4.91;;;;;;;;;;332129;160;864589;-55
2022/05/18 03:51:29;;;;;;;17.28;7.17;;;;;;;;;;332225;160;864367;-55
2022/05/18 03:52:31;;;;;;;20.41;7.61;;;;;;;;;;331276;160;864971;-55
2022/05/18 03:53:33;;;;;;;19.96;7.90;;;;;;;;;;332274;160;858264;-53
2022/05/18 03:54:34;;;;;;;17.21;6.50;;;;;;;;;;331558;160;865069;-56
2022/05/18 03:55:36;;;;;;;23.22;8.01;;;;;;;;;;331922;160;857930;-54
2022/05/18 03:56:38;;;;;;;15.74;4.94;;;;;;;;;;332248;160;865605;-57
2022/05/18 03:57:40;;;;;;;23.51;7.42;;;;;;;;;;330939;160;857283;-53
2022/05/18 03:58:41;;;;;;;19.92;8.12;;;;;;;;;;332860;159;857423;-54
2022/05/18 03:59:43;;;;;;;18.39;6.78;;;;;;;;;;331652;159;858047;-55
2022/05/18 04:00:45;;;;;;;9.93;4.39;;;;;;;;;;332275;160;863886;-53
2022/05/18 04:01:47;;;;;;;16.33;6.11;;;;;;;;;;329982;160;857399;-54
2022/05/18 04:02:48;;;;;;;11.19;4.53;;;;;;;;;;331272;160;857937;-55
2022/05/18 04:03:51;;;;;;;20.14;7.71;;;;;;;;;;331067;160;858538;-57
2022/05/18 04:04:53;;;;;;;13.81;5.29;;;;;;;;;;325787;162;865787;-57
2022/05/18 04:05:54;;;;;;;12.15;6.09;;;;;;;;;;337147;157;857720;-59
2022/05/18 04:06:56;;;;;;;16.23;6.19;;;;;;;;;;342253;155;857143;-60
2022/05/18 04:07:58;;;;;;;20.71;6.91;;;;;;;;;;330417;160;857344;-56
2022/05/18 04:09:01;;;;;;;24.29;7.86;;;;;;;;;;323394;163;866690;-58
2022/05/18 04:10:03;;;;;;;20.93;7.04;;;;;;;;;;332838;157;857271;-59
2022/05/18 04:11:05;;;;;;;16.93;6.75;;;;;;;;;;335893;154;865307;-56
2022/05/18 04:12:08;;;;;;;11.25;4.62;;;;;;;;;;329025;160;856918;-54
2022/05/18 04:13:14;;;;;;;13.35;6.32;;;;;;;;;;329755;160;857823;-56
2022/05/18 04:14:16;;;;;;;14.99;7.08;;;;;;;;;;330575;160;859482;-58
2022/05/18 04:15:18;;;;;;;9.99;5.19;;;;;;;;;;329674;160;857366;-56
2022/05/18 04:16:20;;;;;;;16.95;6.04;;;;;;;;;;328501;160;865715;-54
2022/05/18 04:17:22;;;;;;;12.36;4.84;;;;;;;;;;330851;160;859229;-58
2022/05/18 04:18:23;;;;;;;13.73;5.87;;;;;;;;;;331641;160;864367;-59
2022/05/18 04:19:25;;;;;;;13.23;5.75;;;;;;;;;;330528;160;856116;-59
2022/05/18 04:20:27;;;;;;;15.77;6.16;;;;;;;;;;330455;160;856589;-59
2022/05/18 04:21:30;;;;;;;13.39;6.79;;;;;;;;;;330160;162;856245;-59
2022/05/18 04:24:22;;;;;;;14.55;6.21;;;;;;;8.34;56.02;99795.30;369836;142;867793;-58
2022/05/18 04:25:25;;;;;;;16.72;6.40;;;;;;;7.83;57.57;99797.04;363891;144;858878;-57
2022/05/18 04:26:27;;;;;;;13.49;6.39;;;;;;;7.22;59.80;99791.76;363272;145;859010;-59
2022/05/18 04:27:29;;;;;;;15.19;6.11;;;;;;;7.04;60.43;99801.98;366264;144;858845;-61
2022/05/18 04:40:51;;;;;;;7.84;4.23;;;;;;;8.18;58.21;99804.80;369346;142;871641;-57
2022/05/18 04:41:53;;;;;;;9.66;4.40;;;;;;;8.17;57.46;99797.91;364405;145;859329;-58
2022/05/18 04:42:56;;;;;;;12.36;5.29;;;;;;;7.63;58.66;99805.61;359133;147;856221;-57
2022/05/18 04:43:58;;;;;;;10.01;3.83;;;;;;;7.80;58.87;99797.88;358519;148;864953;-57
2022/05/18 04:45:01;;;;;;;11.30;5.16;;;;;;;8.02;58.01;99803.08;339118;156;858179;-57
2022/05/18 04:46:04;;;;;;;6.26;2.96;;;;;;;8.07;58.24;99803.94;339216;150;857428;-57
2022/05/18 04:47:06;;;;;;;12.14;5.62;;;;;;;8.12;57.82;99802.22;348639;151;857232;-58
2022/05/18 04:48:08;;;;;;;6.02;3.58;;;;;;;7.87;58.83;99804.76;354967;148;858090;-55
2022/05/18 04:49:13;;;;;;;8.47;4.92;;;;;;;8.04;58.05;99797.05;358248;148;857168;-58
2022/05/18 04:50:17;;;;;;;10.59;3.91;;;;;;;7.60;59.69;99797.88;358122;148;858059;-58
2022/05/18 04:51:19;;;;;;;14.07;5.68;;;;;;;7.84;59.17;99804.76;345625;152;857230;-58
2022/05/18 04:52:21;;;;;;;5.83;3.41;;;;;;;7.86;59.18;99804.77;346057;148;860107;-60
2022/05/18 04:53:23;;;;;;;9.56;4.36;;;;;;;8.02;58.33;99803.92;357774;148;857671;-57
2022/05/18 04:54:25;;;;;;;6.46;3.62;;;;;;;8.14;57.97;99797.92;357502;148;864741;-58
2022/05/18 04:55:27;;;;;;;7.67;3.89;;;;;;;8.25;57.55;99804.79;358382;148;857137;-58
2022/05/18 04:56:29;;;;;;;14.09;5.31;;;;;;;8.31;57.35;99810.78;358837;149;857299;-60
2022/05/18 04:57:31;;;;;;;20.03;5.09;;;;;;;8.25;57.85;99799.62;358808;148;865630;-56
2022/05/18 04:58:34;;;;;;;9.10;4.09;;;;;;;8.30;57.17;99803.06;351369;151;857189;-59
2022/05/18 04:59:36;;;;;;;9.52;3.58;;;;;;;8.33;56.93;99803.06;358530;148;858104;-59
2022/05/18 05:00:38;;;;;;;10.81;4.36;;;;;;;8.36;56.92;99804.76;357868;148;856096;-57
2022/05/18 05:01:42;;;;;;;11.45;5.47;;;;;;;8.19;58.10;99803.94;358254;148;857844;-58
2022/05/18 05:02:44;;;;;;;10.32;4.00;;;;;;;8.18;58.38;99809.95;357907;148;858299;-58
2022/05/18 05:03:45;;;;;;;10.07;4.09;;;;;;;7.87;59.12;99797.03;358534;148;860467;-58
2022/05/18 05:04:47;;;;;;;6.22;3.31;;;;;;;;;;358479;148;865385;-58
2022/05/18 05:05:49;;;;;;;7.34;3.90;;;;;;;;;;357785;148;864971;-57
2022/05/18 05:06:51;;;;;;;7.54;3.02;;;;;;;;;;357466;148;857561;-57
2022/05/18 05:07:54;;;;;;;5.66;3.29;;;;;;;;;;357821;148;866792;-59
2022/05/18 05:08:56;;;;;;;7.09;3.37;;;;;;;;;;358629;147;866380;-58
2022/05/18 05:09:57;;;;;;;5.83;3.26;;;;;;;;;;358217;147;857199;-57
2022/05/18 05:10:59;;;;;;;4.93;3.04;;;;;;;;;;357265;149;861144;-57
2022/05/18 05:12:01;;;;;;;5.07;2.57;;;;;;;;;;357347;148;858974;-58
2022/05/18 05:13:02;;;;;;;7.69;2.54;;;;;;;;;;359099;148;858794;-57
2022/05/18 05:14:05;;;;;;;6.73;2.71;;;;;;;;;;358601;148;865566;-58
2022/05/18 05:15:07;;;;;;;4.73;2.05;;;;;;;;;;358413;148;856322;-58
2022/05/18 05:16:10;;;;;;;7.11;2.99;;;;;;;;;;357767;147;857117;-58
2022/05/18 05:17:12;;;;;;;1.89;1.36;;;;;;;;;;358331;148;856098;-59
2022/05/18 05:18:13;;;;;;;6.48;2.83;;;;;;;;;;358745;148;863759;-58
2022/05/18 05:19:15;;;;;;;5.02;2.68;;;;;;;;;;358214;150;856586;-58
2022/05/18 05:20:18;;;;;;;6.21;3.00;;;;;;;;;;358271;148;856820;-57
2022/05/18 05:21:20;;;;;;;5.66;1.88;;;;;;;;;;358154;148;856060;-58
2022/05/18 05:22:21;;;;;;;5.71;1.94;;;;;;;;;;357632;148;856946;-59
2022/05/18 05:23:24;;;;;;;5.56;2.54;;;;;;;;;;358516;148;856648;-58
2022/05/18 05:24:25;;;;;;;6.58;3.41;;;;;;;;;;359488;148;856735;-58
2022/05/18 05:25:27;;;;;;;6.56;3.36;;;;;;;;;;358940;148;864233;-58
2022/05/18 05:26:29;;;;;;;7.71;3.21;;;;;;;;;;359962;148;863823;-58
2022/05/18 05:27:30;;;;;;;7.51;3.76;;;;;;;;;;357810;148;863611;-57
2022/05/18 05:28:32;;;;;;;7.21;3.33;;;;;;;;;;357736;149;856057;-57
2022/05/18 05:29:33;;;;;;;8.69;3.11;;;;;;;;;;357778;148;856121;-58
2022/05/18 05:30:35;;;;;;;8.39;2.84;;;;;;;;;;358823;148;856169;-57
2022/05/18 05:31:36;;;;;;;9.84;2.42;;;;;;;;;;350096;152;856197;-58
2022/05/18 05:32:38;;;;;;;6.59;2.21;;;;;;;;;;351638;152;856757;-58
2022/05/18 05:33:40;;;;;;;5.67;3.50;;;;;;;;;;359162;148;856207;-58
2022/05/18 05:34:42;;;;;;;6.53;3.59;;;;;;;;;;355419;148;857225;-57
2022/05/18 05:35:44;;;;;;;8.63;3.62;;;;;;;;;;357279;148;856618;-58
2022/05/18 05:36:45;;;;;;;7.28;3.36;;;;;;;;;;357839;149;866493;-58
2022/05/18 05:37:47;;;;;;;5.62;3.19;;;;;;;;;;359341;147;856737;-57
2022/05/18 05:38:49;;;;;;;8.17;3.57;;;;;;;;;;359293;148;858267;-57
2022/05/18 05:39:51;;;;;;;8.52;2.92;;;;;;;;;;358765;148;860973;-57
2022/05/18 05:40:54;;;;;;;6.95;3.21;;;;;;;;;;358271;148;858516;-58
2022/05/18 05:41:55;;;;;;;7.33;3.28;;;;;;;;;;358016;148;857837;-58
2022/05/18 05:42:57;;;;;;;6.29;2.72;;;;;;;;;;359850;149;858209;-58
2022/05/18 05:43:58;;;;;;;7.12;3.24;;;;;;;;;;358440;148;868145;-59
2022/05/18 05:45:00;;;;;;;5.27;2.64;;;;;;;;;;358558;148;857685;-58
2022/05/18 05:46:02;;;;;;;4.73;2.21;;;;;;;;;;358858;148;857231;-58
2022/05/18 05:47:04;;;;;;;6.76;2.64;;;;;;;;;;352850;151;857533;-57
2022/05/18 05:48:06;;;;;;;2.65;1.44;;;;;;;;;;357988;149;859387;-58
2022/05/18 05:49:09;;;;;;;5.16;2.35;;;;;;;;;;357927;148;857392;-57
2022/05/18 05:50:13;;;;;;;6.71;2.78;;;;;;;;;;351601;151;856172;-58
2022/05/18 05:51:15;;;;;;;5.15;2.59;;;;;;;;;;351301;150;866010;-57
2022/05/18 05:52:17;;;;;;;4.37;2.27;;;;;;;;;;360601;149;864782;-59
2022/05/18 05:53:19;;;;;;;6.03;3.00;;;;;;;;;;358232;148;857341;-58
2022/05/18 05:54:21;;;;;;;10.09;2.63;;;;;;;;;;358167;148;857160;-58
2022/05/18 05:55:23;;;;;;;6.71;3.21;;;;;;;;;;357579;148;864653;-58
2022/05/18 05:56:25;;;;;;;6.77;3.48;;;;;;;;;;357661;149;856572;-58
2022/05/18 05:57:26;;;;;;;6.71;2.94;;;;;;;;;;356566;148;857250;-58
2022/05/18 05:58:33;;;;;;;8.51;3.58;;;;;;;;;;358305;149;857184;-57
2022/05/18 05:59:32;;;;;;;9.66;3.35;;;;;;;;;;352792;151;856116;-58
2022/05/18 06:00:33;;;;;;;7.61;3.47;;;;;;;;;;360067;147;857357;-58
2022/05/18 06:01:35;;;;;;;6.20;2.16;;;;;;;;;;358551;148;857290;-57
2022/05/18 06:02:36;;;;;;;8.26;3.56;;;;;;;;;;358367;148;857242;-57
2022/05/18 06:03:38;;;;;;;8.06;3.89;;;;;;;;;;358950;148;857443;-57
2022/05/18 06:04:40;;;;;;;3.56;2.32;;;;;;;;;;358111;148;857296;-57
2022/05/18 06:05:42;;;;;;;5.06;2.15;;;;;;;;;;355442;148;857831;-57
2022/05/18 06:06:43;;;;;;;11.49;4.57;;;;;;;;;;358820;148;863993;-57
2022/05/18 06:07:45;;;;;;;7.31;3.25;;;;;;;;;;357840;148;856637;-57
2022/05/18 06:08:46;;;;;;;11.97;4.58;;;;;;;;;;357787;148;857335;-57
2022/05/18 06:09:48;;;;;;;9.73;4.16;;;;;;;;;;356888;148;867194;-57
2022/05/18 06:10:50;;;;;;;7.64;4.86;;;;;;;;;;359004;148;856442;-57
2022/05/18 06:11:51;;;;;;;7.84;3.44;;;;;;;;;;359267;148;865310;-57
2022/05/18 06:12:53;;;;;;;9.77;4.04;;;;;;;;;;360020;148;857107;-57
2022/05/18 06:13:54;;;;;;;10.26;4.96;;;;;;;;;;358531;148;864890;-57
2022/05/18 06:14:57;;;;;;;10.92;5.19;;;;;;;;;;356876;148;857148;-58